C E — WDI5089 — position and weather

sailwx.info

Track history (hours):
 
Tides and Currents Weather Stations Pressure Air Temp Water Temp Dewpoint Dewpoint Depression Visibility Wind Speed Wind Dir Waves Ship Positions

C E

Owner: Harley Marine Services, Inc, Seattle, WA. More information available from US FCC via Universal Licensing System and Coast Guard Vessel Documentation Center.

Last reported at 2017-Dec-11 17:00 UTC. Time now 2017-Dec-13 03:43 UTC.
Position N 48°26' W 122°45'.

Length 30 m; draft 4 m.

Type: Towing. MMSI: 367705050.

Date/timePositionNaut miles runAvg speedWind from/ knotsBaromVisibWave heightAir tempDewpointWater temp
2017-Dec-11 17:00N 48°26' W 122°45'2 4.1
2017-Dec-11 16:30N 48°28' W 122°45'2 4.7
2017-Dec-11 16:00N 48°31' W 122°45'2 4.8
2017-Dec-11 15:30N 48°33' W 122°45'3 5.2
2017-Dec-11 15:00N 48°36' W 122°46'3 5.8
2017-Dec-11 14:30N 48°38' W 122°44'3 5.5
2017-Dec-11 14:00N 48°41' W 122°44'7 5.9
2017-Dec-11 12:50N 48°48' W 122°44'1 4.0
2017-Dec-11 12:29N 48°49' W 122°44'0 0.7
2017-Dec-11 11:58N 48°50' W 122°43'0 0.0
2017-Dec-11 11:27N 48°50' W 122°43'0 0.0
2017-Dec-11 10:57N 48°50' W 122°43'0 0.0
2017-Dec-11 10:29N 48°50' W 122°43'0 0.0
2017-Dec-11 04:58N 48°50' W 122°43'0 0.4
2017-Dec-11 04:29N 48°49' W 122°43'2 4.4
2017-Dec-11 03:59N 48°47' W 122°45'2 3.0
2017-Dec-11 03:12N 48°45' W 122°45'1 5.4
2017-Dec-11 03:00N 48°44' W 122°45'3 5.7
2017-Dec-11 02:30N 48°42' W 122°43'3 5.5
2017-Dec-11 02:00N 48°39' W 122°43'3 5.8
2017-Dec-11 01:30N 48°36' W 122°45'3 5.6
2017-Dec-11 01:00N 48°33' W 122°45'3 5.4
2017-Dec-11 00:30N 48°31' W 122°44'3 5.4
2017-Dec-11 00:00N 48°28' W 122°44'3 4.9
2017-Dec-10 23:29N 48°26' W 122°44'4 5.9
2017-Dec-10 22:53N 48°22' W 122°44'3 6.3
2017-Dec-10 22:20N 48°19' W 122°46'4 6.2
2017-Dec-10 21:38N 48°14' W 122°48'1 6.8
2017-Dec-10 21:28N 48°13' W 122°48'14 7.7
2017-Dec-10 19:36N 48°01' W 122°37'3 7.4
2017-Dec-10 19:14N 47°59' W 122°35'2 8.4
2017-Dec-10 18:59N 47°57' W 122°33'3 7.0
2017-Dec-10 18:30N 47°55' W 122°29'3 6.7
2017-Dec-10 18:00N 47°52' W 122°28'3 7.0
2017-Dec-10 17:30N 47°49' W 122°26'3 6.8
2017-Dec-10 17:00N 47°45' W 122°26'3 6.7
2017-Dec-10 16:30N 47°42' W 122°26'3 6.3
2017-Dec-10 16:00N 47°39' W 122°27'3 6.7
2017-Dec-10 15:30N 47°36' W 122°24'1 2.7
2017-Dec-10 15:00N 47°36' W 122°22'0 0.4
2017-Dec-10 14:30N 47°35' W 122°22'0 0.1
2017-Dec-10 14:00N 47°35' W 122°22'0 0.1
2017-Dec-10 13:30N 47°35' W 122°22'0 0.1
2017-Dec-10 13:00N 47°35' W 122°22'0 0.0
2017-Dec-10 12:30N 47°35' W 122°22'0 0.1
2017-Dec-10 12:00N 47°35' W 122°22'0 0.1
2017-Dec-10 11:30N 47°35' W 122°22'0 0.0
2017-Dec-10 11:00N 47°35' W 122°22'0 0.1
2017-Dec-10 10:30N 47°35' W 122°22'0 0.1
2017-Dec-10 10:00N 47°35' W 122°22'0 0.0
2017-Dec-10 09:30N 47°35' W 122°22'0 0.0
2017-Dec-10 09:00N 47°35' W 122°22'0 0.0
2017-Dec-10 08:30N 47°35' W 122°22'0 0.0
2017-Dec-10 08:00N 47°35' W 122°22'0 0.0
2017-Dec-10 07:30N 47°35' W 122°22'0 0.0
2017-Dec-10 07:00N 47°35' W 122°22'0 0.0
2017-Dec-10 06:30N 47°35' W 122°22'0 0.0
2017-Dec-10 06:00N 47°35' W 122°22'0 0.1
2017-Dec-10 05:30N 47°35' W 122°22'0 0.1
2017-Dec-10 05:00N 47°35' W 122°22'0 0.0
2017-Dec-10 04:30N 47°35' W 122°22'0 0.0
2017-Dec-10 04:00N 47°35' W 122°22'0 0.9
2017-Dec-10 03:30N 47°36' W 122°22'1 1.0
2017-Dec-10 03:00N 47°35' W 122°21'1 1.8
2017-Dec-10 02:30N 47°35' W 122°21'0 0.3
2017-Dec-10 02:00N 47°34' W 122°21'0 0.0
2017-Dec-10 01:30N 47°34' W 122°21'0 0.0
2017-Dec-10 01:00N 47°34' W 122°21'0 0.0
2017-Dec-10 00:30N 47°34' W 122°21'0 0.0
2017-Dec-10 00:00N 47°34' W 122°21'0 0.0
2017-Dec-09 23:30N 47°34' W 122°21'0 0.0
2017-Dec-09 23:00N 47°34' W 122°21'0 0.0
2017-Dec-09 22:30N 47°34' W 122°21'0 0.0
2017-Dec-09 22:00N 47°34' W 122°21'0 0.0
2017-Dec-09 21:30N 47°34' W 122°21'0 0.0
2017-Dec-09 21:00N 47°34' W 122°21'0 0.0
2017-Dec-09 20:30N 47°34' W 122°21'0 0.0
2017-Dec-09 20:00N 47°34' W 122°21'0 0.0
2017-Dec-09 19:30N 47°34' W 122°21'0 0.0
2017-Dec-09 19:00N 47°34' W 122°21'0 0.0
2017-Dec-09 18:30N 47°34' W 122°21'0 0.0
2017-Dec-09 18:00N 47°34' W 122°21'0 0.0
2017-Dec-09 17:30N 47°34' W 122°21'0 0.0
2017-Dec-09 17:00N 47°34' W 122°21'0 0.0
2017-Dec-09 16:28N 47°34' W 122°21'0 0.0
2017-Dec-09 16:00N 47°34' W 122°21'0 0.0
2017-Dec-09 15:30N 47°34' W 122°21'0 0.0
2017-Dec-09 15:00N 47°34' W 122°21'0 0.0
2017-Dec-09 14:30N 47°34' W 122°21'0 0.0
2017-Dec-09 14:00N 47°34' W 122°21'0 0.0
2017-Dec-09 13:30N 47°34' W 122°21'0 0.0
2017-Dec-09 13:00N 47°34' W 122°21'0 0.0
2017-Dec-09 12:30N 47°34' W 122°21'0 0.0
2017-Dec-09 12:00N 47°34' W 122°21'0 0.0
2017-Dec-09 11:30N 47°34' W 122°21'0 0.0
2017-Dec-09 11:00N 47°34' W 122°21'0 0.0
2017-Dec-09 10:30N 47°34' W 122°21'0 0.0
2017-Dec-09 10:00N 47°34' W 122°21'0 0.0
2017-Dec-09 09:30N 47°34' W 122°21'0 0.0
2017-Dec-09 09:00N 47°34' W 122°21'0 0.0
2017-Dec-09 08:30N 47°34' W 122°21'0 0.0
2017-Dec-09 08:00N 47°34' W 122°21'0 0.0
2017-Dec-09 07:30N 47°34' W 122°21'0 0.0
2017-Dec-09 07:00N 47°34' W 122°21'0 0.0
2017-Dec-09 06:30N 47°34' W 122°21'0 0.0
2017-Dec-09 06:00N 47°34' W 122°21'0 0.0
2017-Dec-09 05:30N 47°34' W 122°21'0 0.0
2017-Dec-09 05:00N 47°34' W 122°21'0 0.0
2017-Dec-09 04:30N 47°34' W 122°21'0 0.0
2017-Dec-09 04:00N 47°34' W 122°21'0 0.0
2017-Dec-09 03:30N 47°34' W 122°21'0 0.0
2017-Dec-09 03:00N 47°34' W 122°21'0 0.0
2017-Dec-09 02:30N 47°34' W 122°21'0 0.0
2017-Dec-09 02:00N 47°34' W 122°21'0 0.0
2017-Dec-09 01:30N 47°34' W 122°21'0 0.0
2017-Dec-09 01:00N 47°34' W 122°21'0 0.0
2017-Dec-09 00:30N 47°34' W 122°21'0 0.0
2017-Dec-09 00:00N 47°34' W 122°21'0 0.0
2017-Dec-08 23:30N 47°34' W 122°21'0 0.0
2017-Dec-08 23:00N 47°34' W 122°21'0 0.0
2017-Dec-08 22:30N 47°34' W 122°21'0 0.0
2017-Dec-08 22:00N 47°34' W 122°21'0 0.0
2017-Dec-08 21:30N 47°34' W 122°21'0 0.0
2017-Dec-08 21:00N 47°34' W 122°21'0 0.0
2017-Dec-08 20:30N 47°34' W 122°21'0 0.0
2017-Dec-08 20:00N 47°34' W 122°21'0 0.0
2017-Dec-08 19:30N 47°34' W 122°21'0 0.0
2017-Dec-08 19:00N 47°34' W 122°21'0 0.0
2017-Dec-08 18:31N 47°34' W 122°21'0 0.0
2017-Dec-08 18:00N 47°34' W 122°21'0 0.0
2017-Dec-08 17:30N 47°34' W 122°21'0 0.0
2017-Dec-08 17:00N 47°34' W 122°21'0 0.0
2017-Dec-08 16:30N 47°34' W 122°21'0 0.0
2017-Dec-08 16:01N 47°34' W 122°21'0 0.0
2017-Dec-08 15:30N 47°34' W 122°21'0 0.0
2017-Dec-08 15:00N 47°34' W 122°21'0 0.0
2017-Dec-08 14:30N 47°34' W 122°21'0 0.0
2017-Dec-08 14:01N 47°34' W 122°21'0 0.0
2017-Dec-08 13:30N 47°34' W 122°21'0 0.0
2017-Dec-08 13:00N 47°34' W 122°21'0 0.0
2017-Dec-08 12:30N 47°34' W 122°21'0 0.0
2017-Dec-08 12:00N 47°34' W 122°21'0 0.0
2017-Dec-08 11:30N 47°34' W 122°21'0 0.0
2017-Dec-08 11:00N 47°34' W 122°21'0 0.0
2017-Dec-08 10:30N 47°34' W 122°21'0 0.0
2017-Dec-08 10:00N 47°34' W 122°21'0 0.0
2017-Dec-08 09:30N 47°34' W 122°21'0 0.0
2017-Dec-08 09:00N 47°34' W 122°21'0 0.0
2017-Dec-08 08:30N 47°34' W 122°21'0 0.0
2017-Dec-08 08:00N 47°34' W 122°21'0 0.0
2017-Dec-08 07:30N 47°34' W 122°21'0 0.0
2017-Dec-08 07:00N 47°34' W 122°21'0 0.0
2017-Dec-08 06:30N 47°34' W 122°21'0 0.0
2017-Dec-08 06:00N 47°34' W 122°21'0 0.0
2017-Dec-08 05:30N 47°34' W 122°21'0 0.0
2017-Dec-08 05:00N 47°34' W 122°21'0 0.0
2017-Dec-08 04:30N 47°34' W 122°21'0 0.0
2017-Dec-08 04:00N 47°34' W 122°21'0 0.0
2017-Dec-08 03:31N 47°34' W 122°21'0 0.0
2017-Dec-08 03:00N 47°34' W 122°21'0 0.0
2017-Dec-08 02:30N 47°34' W 122°21'0 0.0
2017-Dec-08 02:00N 47°34' W 122°21'0 0.0
2017-Dec-08 01:30N 47°34' W 122°21'0 0.0
2017-Dec-08 01:00N 47°34' W 122°21'0 0.0
2017-Dec-08 00:30N 47°34' W 122°21'0 0.0
2017-Dec-08 00:00N 47°34' W 122°21'0 0.0
2017-Dec-07 23:30N 47°34' W 122°21'0 0.0
2017-Dec-07 23:00N 47°34' W 122°21'0 0.0
2017-Dec-07 22:30N 47°34' W 122°21'0 0.0
2017-Dec-07 22:00N 47°34' W 122°21'0 0.0
2017-Dec-07 21:30N 47°34' W 122°21'0 0.0
2017-Dec-07 21:00N 47°34' W 122°21'2 3.3
2017-Dec-07 20:30N 47°36' W 122°22'4 7.5
2017-Dec-07 20:00N 47°33' W 122°26'5 9.1
2017-Dec-07 19:30N 47°29' W 122°24'5 9.1
2017-Dec-07 19:00N 47°24' W 122°21'4 7.3
2017-Dec-07 18:30N 47°21' W 122°24'4 8.0
2017-Dec-07 18:00N 47°18' W 122°27'2 0.2
2017-Dec-07 09:56N 47°17' W 122°25'1 2.1
2017-Dec-07 09:30N 47°17' W 122°26'2 4.6
2017-Dec-07 09:00N 47°19' W 122°28'3 6.4
2017-Dec-07 08:30N 47°22' W 122°24'3 5.7
2017-Dec-07 08:00N 47°24' W 122°22'3 6.8
2017-Dec-07 07:30N 47°27' W 122°25'3 6.7
2017-Dec-07 07:00N 47°30' W 122°26'3 6.9
2017-Dec-07 06:30N 47°34' W 122°26'3 5.8
2017-Dec-07 06:00N 47°36' W 122°23'2 4.1
2017-Dec-07 05:30N 47°35' W 122°21'0 0.5
2017-Dec-07 04:58N 47°34' W 122°21'0 0.0
2017-Dec-07 04:28N 47°34' W 122°21'0 0.0
2017-Dec-07 03:58N 47°34' W 122°21'0 0.0
2017-Dec-07 03:28N 47°34' W 122°21'0 0.0
2017-Dec-07 02:58N 47°34' W 122°21'0 0.0
2017-Dec-07 02:30N 47°34' W 122°21'0 0.0
2017-Dec-07 02:00N 47°34' W 122°21'0 0.0
2017-Dec-07 01:30N 47°34' W 122°21'0 0.0
2017-Dec-07 01:00N 47°34' W 122°21'0 0.0
2017-Dec-07 00:31N 47°34' W 122°21'0 0.0
2017-Dec-07 00:01N 47°34' W 122°21'0 0.1
2017-Dec-06 23:31N 47°34' W 122°21'0 0.0
2017-Dec-06 23:01N 47°34' W 122°21'0 0.0
2017-Dec-06 22:31N 47°34' W 122°21'0 0.0
2017-Dec-06 22:01N 47°34' W 122°21'0 0.0
2017-Dec-06 21:30N 47°34' W 122°21'0 0.0
2017-Dec-06 21:00N 47°34' W 122°21'  
2017-Dec-04 10:30N 47°18' W 122°27'2 4.8
2017-Dec-04 10:00N 47°16' W 122°26'1 1.0
2017-Dec-04 09:30N 47°16' W 122°26'0 0.0
2017-Dec-04 09:01N 47°16' W 122°26'0 0.0
2017-Dec-04 08:30N 47°16' W 122°26'0 0.0
2017-Dec-04 08:00N 47°16' W 122°26'0 0.0
2017-Dec-04 07:30N 47°16' W 122°26'0 0.0
2017-Dec-04 07:00N 47°16' W 122°26'0 0.0
2017-Dec-04 06:30N 47°16' W 122°26'0 0.0
2017-Dec-04 06:00N 47°16' W 122°26'0 0.0
2017-Dec-04 05:30N 47°16' W 122°26'0 0.0
2017-Dec-04 05:00N 47°16' W 122°26'0 0.0
2017-Dec-04 04:30N 47°16' W 122°26'0 0.0
2017-Dec-04 04:00N 47°16' W 122°26'0 0.0
2017-Dec-04 03:30N 47°16' W 122°26'0 0.0
2017-Dec-04 03:00N 47°16' W 122°26'0 1.0
2017-Dec-04 02:30N 47°16' W 122°26'1 2.4
2017-Dec-04 02:00N 47°17' W 122°27'1 1.1
2017-Dec-04 01:31N 47°17' W 122°28'1 2.4
2017-Dec-04 01:00N 47°19' W 122°28'3 5.8
2017-Dec-04 00:30N 47°21' W 122°25'3 5.8
2017-Dec-04 00:00N 47°23' W 122°22'3 5.6
2017-Dec-03 23:30N 47°25' W 122°24'3 6.1
2017-Dec-03 23:00N 47°28' W 122°26'3 6.3
2017-Dec-03 22:30N 47°31' W 122°27'3 6.4
2017-Dec-03 22:00N 47°34' W 122°28'3 6.5
2017-Dec-03 21:30N 47°38' W 122°28'3 6.5
2017-Dec-03 21:00N 47°41' W 122°28'3 6.8
2017-Dec-03 20:30N 47°44' W 122°27'3 6.8
2017-Dec-03 20:00N 47°48' W 122°28'3 6.2
2017-Dec-03 19:30N 47°51' W 122°29'3 5.9
2017-Dec-03 19:00N 47°53' W 122°30'3 5.2
2017-Dec-03 18:30N 47°56' W 122°32'3 5.0
2017-Dec-03 18:00N 47°57' W 122°35'21 4.3
2017-Dec-03 13:03N 48°16' W 122°48'0 6.1
2017-Dec-03 12:59N 48°17' W 122°48'3 5.9
2017-Dec-03 12:25N 48°20' W 122°47'2 5.2
2017-Dec-03 12:00N 48°22' W 122°46'2 4.3
2017-Dec-03 11:30N 48°24' W 122°45'2 4.7
2017-Dec-03 10:58N 48°27' W 122°45'1 3.2
2017-Dec-03 10:30N 48°28' W 122°45'1 2.5
2017-Dec-03 10:00N 48°29' W 122°45'1 1.8
2017-Dec-03 09:31N 48°30' W 122°44'1 2.3
2017-Dec-03 09:00N 48°31' W 122°45'18 1.8
2017-Dec-02 22:51N 48°49' W 122°43'2 2.7
2017-Dec-02 22:15N 48°49' W 122°46'2 1.7
2017-Dec-02 21:19N 48°47' W 122°45'2 5.6
2017-Dec-02 21:00N 48°45' W 122°45'3 5.7
2017-Dec-02 20:30N 48°43' W 122°44'3 5.6
2017-Dec-02 20:00N 48°40' W 122°42'3 5.7
2017-Dec-02 19:30N 48°38' W 122°39'3 6.6
2017-Dec-02 19:00N 48°35' W 122°36'3 6.3
2017-Dec-02 18:30N 48°32' W 122°34'2 4.2
2017-Dec-02 17:58N 48°31' W 122°37'0 0.1
2017-Dec-02 17:28N 48°31' W 122°37'0 0.0
2017-Dec-02 16:58N 48°31' W 122°37'0 0.0
2017-Dec-02 16:28N 48°31' W 122°37'0 0.0
2017-Dec-02 15:58N 48°31' W 122°37'0 0.0
2017-Dec-02 15:28N 48°31' W 122°37'0 0.0
2017-Dec-02 14:58N 48°31' W 122°37'0 0.0
2017-Dec-02 14:28N 48°31' W 122°37'0 0.0
2017-Dec-02 13:52N 48°31' W 122°37'0 0.0
2017-Dec-02 13:28N 48°31' W 122°37'0 0.0
2017-Dec-02 12:58N 48°31' W 122°37'0 0.0
2017-Dec-02 12:28N 48°31' W 122°37'0 0.0
2017-Dec-02 11:58N 48°31' W 122°37'0 0.0
2017-Dec-02 11:28N 48°31' W 122°37'0 0.0
2017-Dec-02 10:58N 48°31' W 122°37'0 0.0
2017-Dec-02 10:28N 48°31' W 122°37'0 0.0
2017-Dec-02 09:58N 48°31' W 122°37'0 0.0
2017-Dec-02 09:28N 48°31' W 122°37'0 0.0
2017-Dec-02 08:52N 48°31' W 122°37'0 0.0
2017-Dec-02 08:28N 48°31' W 122°37'0 0.0
2017-Dec-02 07:58N 48°31' W 122°37'0 0.0
2017-Dec-02 07:28N 48°31' W 122°37'0 0.0
2017-Dec-02 06:58N 48°31' W 122°37'0 0.0
2017-Dec-02 06:28N 48°31' W 122°37'0 0.0
2017-Dec-02 05:58N 48°31' W 122°37'0 0.0
2017-Dec-02 05:28N 48°31' W 122°37'0 0.0
2017-Dec-02 04:58N 48°31' W 122°37'0 0.0
2017-Dec-02 04:28N 48°31' W 122°37'0 0.0
2017-Dec-02 03:58N 48°31' W 122°37'0 0.0
2017-Dec-02 03:28N 48°31' W 122°37'0 0.0
2017-Dec-02 02:58N 48°31' W 122°37'0 0.0
2017-Dec-02 02:28N 48°31' W 122°37'0 0.0
2017-Dec-02 01:58N 48°31' W 122°37'0 0.0
2017-Dec-02 01:28N 48°31' W 122°37'0 0.0
2017-Dec-02 00:58N 48°31' W 122°37'0 0.0
2017-Dec-02 00:31N 48°31' W 122°37'0 0.0
2017-Dec-01 23:58N 48°31' W 122°37'0 0.0
2017-Dec-01 23:28N 48°31' W 122°37'0 0.0
2017-Dec-01 23:01N 48°31' W 122°37'0 0.0
2017-Dec-01 22:30N 48°31' W 122°37'0 0.0
2017-Dec-01 22:00N 48°31' W 122°37'0 0.0
2017-Dec-01 21:30N 48°31' W 122°37'0 0.0
2017-Dec-01 21:00N 48°31' W 122°37'0 0.0
2017-Dec-01 20:30N 48°31' W 122°37'0 0.0
2017-Dec-01 20:00N 48°31' W 122°37'0 0.0
2017-Dec-01 19:30N 48°31' W 122°37'0 0.0
2017-Dec-01 19:00N 48°31' W 122°37'0 0.0
2017-Dec-01 18:30N 48°31' W 122°37'0 0.0
2017-Dec-01 18:00N 48°31' W 122°37'0 0.0
2017-Dec-01 17:30N 48°31' W 122°37'0 0.0
2017-Dec-01 17:00N 48°31' W 122°37'  
Track history (hours):
 
Tides and Currents Weather Stations Pressure Air Temp Water Temp Dewpoint Dewpoint Depression Visibility Wind Speed Wind Dir Waves Ship Positions

C E

Owner: Harley Marine Services, Inc, Seattle, WA. More information available from US FCC via Universal Licensing System and Coast Guard Vessel Documentation Center.

Last reported at 2017-Dec-11 17:00 UTC. Time now 2017-Dec-13 03:43 UTC.
Position N 48°26' W 122°45'.

Length 30 m; draft 4 m.

Type: Towing. MMSI: 367705050.

Date/timePositionNaut miles runAvg speedWind from/ knotsBaromVisibWave heightAir tempDewpointWater temp
2017-Dec-11 17:00N 48°26' W 122°45'2 4.1
2017-Dec-11 16:30N 48°28' W 122°45'2 4.7
2017-Dec-11 16:00N 48°31' W 122°45'2 4.8
2017-Dec-11 15:30N 48°33' W 122°45'3 5.2
2017-Dec-11 15:00N 48°36' W 122°46'3 5.8
2017-Dec-11 14:30N 48°38' W 122°44'3 5.5
2017-Dec-11 14:00N 48°41' W 122°44'7 5.9
2017-Dec-11 12:50N 48°48' W 122°44'1 4.0
2017-Dec-11 12:29N 48°49' W 122°44'0 0.7
2017-Dec-11 11:58N 48°50' W 122°43'0 0.0
2017-Dec-11 11:27N 48°50' W 122°43'0 0.0
2017-Dec-11 10:57N 48°50' W 122°43'0 0.0
2017-Dec-11 10:29N 48°50' W 122°43'0 0.0
2017-Dec-11 04:58N 48°50' W 122°43'0 0.4
2017-Dec-11 04:29N 48°49' W 122°43'2 4.4
2017-Dec-11 03:59N 48°47' W 122°45'2 3.0
2017-Dec-11 03:12N 48°45' W 122°45'1 5.4
2017-Dec-11 03:00N 48°44' W 122°45'3 5.7
2017-Dec-11 02:30N 48°42' W 122°43'3 5.5
2017-Dec-11 02:00N 48°39' W 122°43'3 5.8
2017-Dec-11 01:30N 48°36' W 122°45'3 5.6
2017-Dec-11 01:00N 48°33' W 122°45'3 5.4
2017-Dec-11 00:30N 48°31' W 122°44'3 5.4
2017-Dec-11 00:00N 48°28' W 122°44'3 4.9
2017-Dec-10 23:29N 48°26' W 122°44'4 5.9
2017-Dec-10 22:53N 48°22' W 122°44'3 6.3
2017-Dec-10 22:20N 48°19' W 122°46'4 6.2
2017-Dec-10 21:38N 48°14' W 122°48'1 6.8
2017-Dec-10 21:28N 48°13' W 122°48'14 7.7
2017-Dec-10 19:36N 48°01' W 122°37'3 7.4
2017-Dec-10 19:14N 47°59' W 122°35'2 8.4
2017-Dec-10 18:59N 47°57' W 122°33'3 7.0
2017-Dec-10 18:30N 47°55' W 122°29'3 6.7
2017-Dec-10 18:00N 47°52' W 122°28'3 7.0
2017-Dec-10 17:30N 47°49' W 122°26'3 6.8
2017-Dec-10 17:00N 47°45' W 122°26'3 6.7
2017-Dec-10 16:30N 47°42' W 122°26'3 6.3
2017-Dec-10 16:00N 47°39' W 122°27'3 6.7
2017-Dec-10 15:30N 47°36' W 122°24'1 2.7
2017-Dec-10 15:00N 47°36' W 122°22'0 0.4
2017-Dec-10 14:30N 47°35' W 122°22'0 0.1
2017-Dec-10 14:00N 47°35' W 122°22'0 0.1
2017-Dec-10 13:30N 47°35' W 122°22'0 0.1
2017-Dec-10 13:00N 47°35' W 122°22'0 0.0
2017-Dec-10 12:30N 47°35' W 122°22'0 0.1
2017-Dec-10 12:00N 47°35' W 122°22'0 0.1
2017-Dec-10 11:30N 47°35' W 122°22'0 0.0
2017-Dec-10 11:00N 47°35' W 122°22'0 0.1
2017-Dec-10 10:30N 47°35' W 122°22'0 0.1
2017-Dec-10 10:00N 47°35' W 122°22'0 0.0
2017-Dec-10 09:30N 47°35' W 122°22'0 0.0
2017-Dec-10 09:00N 47°35' W 122°22'0 0.0
2017-Dec-10 08:30N 47°35' W 122°22'0 0.0
2017-Dec-10 08:00N 47°35' W 122°22'0 0.0
2017-Dec-10 07:30N 47°35' W 122°22'0 0.0
2017-Dec-10 07:00N 47°35' W 122°22'0 0.0
2017-Dec-10 06:30N 47°35' W 122°22'0 0.0
2017-Dec-10 06:00N 47°35' W 122°22'0 0.1
2017-Dec-10 05:30N 47°35' W 122°22'0 0.1
2017-Dec-10 05:00N 47°35' W 122°22'0 0.0
2017-Dec-10 04:30N 47°35' W 122°22'0 0.0
2017-Dec-10 04:00N 47°35' W 122°22'0 0.9
2017-Dec-10 03:30N 47°36' W 122°22'1 1.0
2017-Dec-10 03:00N 47°35' W 122°21'1 1.8
2017-Dec-10 02:30N 47°35' W 122°21'0 0.3
2017-Dec-10 02:00N 47°34' W 122°21'0 0.0
2017-Dec-10 01:30N 47°34' W 122°21'0 0.0
2017-Dec-10 01:00N 47°34' W 122°21'0 0.0
2017-Dec-10 00:30N 47°34' W 122°21'0 0.0
2017-Dec-10 00:00N 47°34' W 122°21'0 0.0
2017-Dec-09 23:30N 47°34' W 122°21'0 0.0
2017-Dec-09 23:00N 47°34' W 122°21'0 0.0
2017-Dec-09 22:30N 47°34' W 122°21'0 0.0
2017-Dec-09 22:00N 47°34' W 122°21'0 0.0
2017-Dec-09 21:30N 47°34' W 122°21'0 0.0
2017-Dec-09 21:00N 47°34' W 122°21'0 0.0
2017-Dec-09 20:30N 47°34' W 122°21'0 0.0
2017-Dec-09 20:00N 47°34' W 122°21'0 0.0
2017-Dec-09 19:30N 47°34' W 122°21'0 0.0
2017-Dec-09 19:00N 47°34' W 122°21'0 0.0
2017-Dec-09 18:30N 47°34' W 122°21'0 0.0
2017-Dec-09 18:00N 47°34' W 122°21'0 0.0
2017-Dec-09 17:30N 47°34' W 122°21'0 0.0
2017-Dec-09 17:00N 47°34' W 122°21'0 0.0
2017-Dec-09 16:28N 47°34' W 122°21'0 0.0
2017-Dec-09 16:00N 47°34' W 122°21'0 0.0
2017-Dec-09 15:30N 47°34' W 122°21'0 0.0
2017-Dec-09 15:00N 47°34' W 122°21'0 0.0
2017-Dec-09 14:30N 47°34' W 122°21'0 0.0
2017-Dec-09 14:00N 47°34' W 122°21'0 0.0
2017-Dec-09 13:30N 47°34' W 122°21'0 0.0
2017-Dec-09 13:00N 47°34' W 122°21'0 0.0
2017-Dec-09 12:30N 47°34' W 122°21'0 0.0
2017-Dec-09 12:00N 47°34' W 122°21'0 0.0
2017-Dec-09 11:30N 47°34' W 122°21'0 0.0
2017-Dec-09 11:00N 47°34' W 122°21'0 0.0
2017-Dec-09 10:30N 47°34' W 122°21'0 0.0
2017-Dec-09 10:00N 47°34' W 122°21'0 0.0
2017-Dec-09 09:30N 47°34' W 122°21'0 0.0
2017-Dec-09 09:00N 47°34' W 122°21'0 0.0
2017-Dec-09 08:30N 47°34' W 122°21'0 0.0
2017-Dec-09 08:00N 47°34' W 122°21'0 0.0
2017-Dec-09 07:30N 47°34' W 122°21'0 0.0
2017-Dec-09 07:00N 47°34' W 122°21'0 0.0
2017-Dec-09 06:30N 47°34' W 122°21'0 0.0
2017-Dec-09 06:00N 47°34' W 122°21'0 0.0
2017-Dec-09 05:30N 47°34' W 122°21'0 0.0
2017-Dec-09 05:00N 47°34' W 122°21'0 0.0
2017-Dec-09 04:30N 47°34' W 122°21'0 0.0
2017-Dec-09 04:00N 47°34' W 122°21'0 0.0
2017-Dec-09 03:30N 47°34' W 122°21'0 0.0
2017-Dec-09 03:00N 47°34' W 122°21'0 0.0
2017-Dec-09 02:30N 47°34' W 122°21'0 0.0
2017-Dec-09 02:00N 47°34' W 122°21'0 0.0
2017-Dec-09 01:30N 47°34' W 122°21'0 0.0
2017-Dec-09 01:00N 47°34' W 122°21'0 0.0
2017-Dec-09 00:30N 47°34' W 122°21'0 0.0
2017-Dec-09 00:00N 47°34' W 122°21'0 0.0
2017-Dec-08 23:30N 47°34' W 122°21'0 0.0
2017-Dec-08 23:00N 47°34' W 122°21'0 0.0
2017-Dec-08 22:30N 47°34' W 122°21'0 0.0
2017-Dec-08 22:00N 47°34' W 122°21'0 0.0
2017-Dec-08 21:30N 47°34' W 122°21'0 0.0
2017-Dec-08 21:00N 47°34' W 122°21'0 0.0
2017-Dec-08 20:30N 47°34' W 122°21'0 0.0
2017-Dec-08 20:00N 47°34' W 122°21'0 0.0
2017-Dec-08 19:30N 47°34' W 122°21'0 0.0
2017-Dec-08 19:00N 47°34' W 122°21'0 0.0
2017-Dec-08 18:31N 47°34' W 122°21'0 0.0
2017-Dec-08 18:00N 47°34' W 122°21'0 0.0
2017-Dec-08 17:30N 47°34' W 122°21'0 0.0
2017-Dec-08 17:00N 47°34' W 122°21'0 0.0
2017-Dec-08 16:30N 47°34' W 122°21'0 0.0
2017-Dec-08 16:01N 47°34' W 122°21'0 0.0
2017-Dec-08 15:30N 47°34' W 122°21'0 0.0
2017-Dec-08 15:00N 47°34' W 122°21'0 0.0
2017-Dec-08 14:30N 47°34' W 122°21'0 0.0
2017-Dec-08 14:01N 47°34' W 122°21'0 0.0
2017-Dec-08 13:30N 47°34' W 122°21'0 0.0
2017-Dec-08 13:00N 47°34' W 122°21'0 0.0
2017-Dec-08 12:30N 47°34' W 122°21'0 0.0
2017-Dec-08 12:00N 47°34' W 122°21'0 0.0
2017-Dec-08 11:30N 47°34' W 122°21'0 0.0
2017-Dec-08 11:00N 47°34' W 122°21'0 0.0
2017-Dec-08 10:30N 47°34' W 122°21'0 0.0
2017-Dec-08 10:00N 47°34' W 122°21'0 0.0
2017-Dec-08 09:30N 47°34' W 122°21'0 0.0
2017-Dec-08 09:00N 47°34' W 122°21'0 0.0
2017-Dec-08 08:30N 47°34' W 122°21'0 0.0
2017-Dec-08 08:00N 47°34' W 122°21'0 0.0
2017-Dec-08 07:30N 47°34' W 122°21'0 0.0
2017-Dec-08 07:00N 47°34' W 122°21'0 0.0
2017-Dec-08 06:30N 47°34' W 122°21'0 0.0
2017-Dec-08 06:00N 47°34' W 122°21'0 0.0
2017-Dec-08 05:30N 47°34' W 122°21'0 0.0
2017-Dec-08 05:00N 47°34' W 122°21'0 0.0
2017-Dec-08 04:30N 47°34' W 122°21'0 0.0
2017-Dec-08 04:00N 47°34' W 122°21'0 0.0
2017-Dec-08 03:31N 47°34' W 122°21'0 0.0
2017-Dec-08 03:00N 47°34' W 122°21'0 0.0
2017-Dec-08 02:30N 47°34' W 122°21'0 0.0
2017-Dec-08 02:00N 47°34' W 122°21'0 0.0
2017-Dec-08 01:30N 47°34' W 122°21'0 0.0
2017-Dec-08 01:00N 47°34' W 122°21'0 0.0
2017-Dec-08 00:30N 47°34' W 122°21'0 0.0
2017-Dec-08 00:00N 47°34' W 122°21'0 0.0
2017-Dec-07 23:30N 47°34' W 122°21'0 0.0
2017-Dec-07 23:00N 47°34' W 122°21'0 0.0
2017-Dec-07 22:30N 47°34' W 122°21'0 0.0
2017-Dec-07 22:00N 47°34' W 122°21'0 0.0
2017-Dec-07 21:30N 47°34' W 122°21'0 0.0
2017-Dec-07 21:00N 47°34' W 122°21'2 3.3
2017-Dec-07 20:30N 47°36' W 122°22'4 7.5
2017-Dec-07 20:00N 47°33' W 122°26'5 9.1
2017-Dec-07 19:30N 47°29' W 122°24'5 9.1
2017-Dec-07 19:00N 47°24' W 122°21'4 7.3
2017-Dec-07 18:30N 47°21' W 122°24'4 8.0
2017-Dec-07 18:00N 47°18' W 122°27'2 0.2
2017-Dec-07 09:56N 47°17' W 122°25'1 2.1
2017-Dec-07 09:30N 47°17' W 122°26'2 4.6
2017-Dec-07 09:00N 47°19' W 122°28'3 6.4
2017-Dec-07 08:30N 47°22' W 122°24'3 5.7
2017-Dec-07 08:00N 47°24' W 122°22'3 6.8
2017-Dec-07 07:30N 47°27' W 122°25'3 6.7
2017-Dec-07 07:00N 47°30' W 122°26'3 6.9
2017-Dec-07 06:30N 47°34' W 122°26'3 5.8
2017-Dec-07 06:00N 47°36' W 122°23'2 4.1
2017-Dec-07 05:30N 47°35' W 122°21'0 0.5
2017-Dec-07 04:58N 47°34' W 122°21'0 0.0
2017-Dec-07 04:28N 47°34' W 122°21'0 0.0
2017-Dec-07 03:58N 47°34' W 122°21'0 0.0
2017-Dec-07 03:28N 47°34' W 122°21'0 0.0
2017-Dec-07 02:58N 47°34' W 122°21'0 0.0
2017-Dec-07 02:30N 47°34' W 122°21'0 0.0
2017-Dec-07 02:00N 47°34' W 122°21'0 0.0
2017-Dec-07 01:30N 47°34' W 122°21'0 0.0
2017-Dec-07 01:00N 47°34' W 122°21'0 0.0
2017-Dec-07 00:31N 47°34' W 122°21'0 0.0
2017-Dec-07 00:01N 47°34' W 122°21'0 0.1
2017-Dec-06 23:31N 47°34' W 122°21'0 0.0
2017-Dec-06 23:01N 47°34' W 122°21'0 0.0
2017-Dec-06 22:31N 47°34' W 122°21'0 0.0
2017-Dec-06 22:01N 47°34' W 122°21'0 0.0
2017-Dec-06 21:30N 47°34' W 122°21'0 0.0
2017-Dec-06 21:00N 47°34' W 122°21'  
2017-Dec-04 10:30N 47°18' W 122°27'2 4.8
2017-Dec-04 10:00N 47°16' W 122°26'1 1.0
2017-Dec-04 09:30N 47°16' W 122°26'0 0.0
2017-Dec-04 09:01N 47°16' W 122°26'0 0.0
2017-Dec-04 08:30N 47°16' W 122°26'0 0.0
2017-Dec-04 08:00N 47°16' W 122°26'0 0.0
2017-Dec-04 07:30N 47°16' W 122°26'0 0.0
2017-Dec-04 07:00N 47°16' W 122°26'0 0.0
2017-Dec-04 06:30N 47°16' W 122°26'0 0.0
2017-Dec-04 06:00N 47°16' W 122°26'0 0.0
2017-Dec-04 05:30N 47°16' W 122°26'0 0.0
2017-Dec-04 05:00N 47°16' W 122°26'0 0.0
2017-Dec-04 04:30N 47°16' W 122°26'0 0.0
2017-Dec-04 04:00N 47°16' W 122°26'0 0.0
2017-Dec-04 03:30N 47°16' W 122°26'0 0.0
2017-Dec-04 03:00N 47°16' W 122°26'0 1.0
2017-Dec-04 02:30N 47°16' W 122°26'1 2.4
2017-Dec-04 02:00N 47°17' W 122°27'1 1.1
2017-Dec-04 01:31N 47°17' W 122°28'1 2.4
2017-Dec-04 01:00N 47°19' W 122°28'3 5.8
2017-Dec-04 00:30N 47°21' W 122°25'3 5.8
2017-Dec-04 00:00N 47°23' W 122°22'3 5.6
2017-Dec-03 23:30N 47°25' W 122°24'3 6.1
2017-Dec-03 23:00N 47°28' W 122°26'3 6.3
2017-Dec-03 22:30N 47°31' W 122°27'3 6.4
2017-Dec-03 22:00N 47°34' W 122°28'3 6.5
2017-Dec-03 21:30N 47°38' W 122°28'3 6.5
2017-Dec-03 21:00N 47°41' W 122°28'3 6.8
2017-Dec-03 20:30N 47°44' W 122°27'3 6.8
2017-Dec-03 20:00N 47°48' W 122°28'3 6.2
2017-Dec-03 19:30N 47°51' W 122°29'3 5.9
2017-Dec-03 19:00N 47°53' W 122°30'3 5.2
2017-Dec-03 18:30N 47°56' W 122°32'3 5.0
2017-Dec-03 18:00N 47°57' W 122°35'21 4.3
2017-Dec-03 13:03N 48°16' W 122°48'0 6.1
2017-Dec-03 12:59N 48°17' W 122°48'3 5.9
2017-Dec-03 12:25N 48°20' W 122°47'2 5.2
2017-Dec-03 12:00N 48°22' W 122°46'2 4.3
2017-Dec-03 11:30N 48°24' W 122°45'2 4.7
2017-Dec-03 10:58N 48°27' W 122°45'1 3.2
2017-Dec-03 10:30N 48°28' W 122°45'1 2.5
2017-Dec-03 10:00N 48°29' W 122°45'1 1.8
2017-Dec-03 09:31N 48°30' W 122°44'1 2.3
2017-Dec-03 09:00N 48°31' W 122°45'18 1.8
2017-Dec-02 22:51N 48°49' W 122°43'2 2.7
2017-Dec-02 22:15N 48°49' W 122°46'2 1.7
2017-Dec-02 21:19N 48°47' W 122°45'2 5.6
2017-Dec-02 21:00N 48°45' W 122°45'3 5.7
2017-Dec-02 20:30N 48°43' W 122°44'3 5.6
2017-Dec-02 20:00N 48°40' W 122°42'3 5.7
2017-Dec-02 19:30N 48°38' W 122°39'3 6.6
2017-Dec-02 19:00N 48°35' W 122°36'3 6.3
2017-Dec-02 18:30N 48°32' W 122°34'2 4.2
2017-Dec-02 17:58N 48°31' W 122°37'0 0.1
2017-Dec-02 17:28N 48°31' W 122°37'0 0.0
2017-Dec-02 16:58N 48°31' W 122°37'0 0.0
2017-Dec-02 16:28N 48°31' W 122°37'0 0.0
2017-Dec-02 15:58N 48°31' W 122°37'0 0.0
2017-Dec-02 15:28N 48°31' W 122°37'0 0.0
2017-Dec-02 14:58N 48°31' W 122°37'0 0.0
2017-Dec-02 14:28N 48°31' W 122°37'0 0.0
2017-Dec-02 13:52N 48°31' W 122°37'0 0.0
2017-Dec-02 13:28N 48°31' W 122°37'0 0.0
2017-Dec-02 12:58N 48°31' W 122°37'0 0.0
2017-Dec-02 12:28N 48°31' W 122°37'0 0.0
2017-Dec-02 11:58N 48°31' W 122°37'0 0.0
2017-Dec-02 11:28N 48°31' W 122°37'0 0.0
2017-Dec-02 10:58N 48°31' W 122°37'0 0.0
2017-Dec-02 10:28N 48°31' W 122°37'0 0.0
2017-Dec-02 09:58N 48°31' W 122°37'0 0.0
2017-Dec-02 09:28N 48°31' W 122°37'0 0.0
2017-Dec-02 08:52N 48°31' W 122°37'0 0.0
2017-Dec-02 08:28N 48°31' W 122°37'0 0.0
2017-Dec-02 07:58N 48°31' W 122°37'0 0.0
2017-Dec-02 07:28N 48°31' W 122°37'0 0.0
2017-Dec-02 06:58N 48°31' W 122°37'0 0.0
2017-Dec-02 06:28N 48°31' W 122°37'0 0.0
2017-Dec-02 05:58N 48°31' W 122°37'0 0.0
2017-Dec-02 05:28N 48°31' W 122°37'0 0.0
2017-Dec-02 04:58N 48°31' W 122°37'0 0.0
2017-Dec-02 04:28N 48°31' W 122°37'0 0.0
2017-Dec-02 03:58N 48°31' W 122°37'0 0.0
2017-Dec-02 03:28N 48°31' W 122°37'0 0.0
2017-Dec-02 02:58N 48°31' W 122°37'0 0.0
2017-Dec-02 02:28N 48°31' W 122°37'0 0.0
2017-Dec-02 01:58N 48°31' W 122°37'0 0.0
2017-Dec-02 01:28N 48°31' W 122°37'0 0.0
2017-Dec-02 00:58N 48°31' W 122°37'0 0.0
2017-Dec-02 00:31N 48°31' W 122°37'0 0.0
2017-Dec-01 23:58N 48°31' W 122°37'0 0.0
2017-Dec-01 23:28N 48°31' W 122°37'0 0.0
2017-Dec-01 23:01N 48°31' W 122°37'0 0.0
2017-Dec-01 22:30N 48°31' W 122°37'0 0.0
2017-Dec-01 22:00N 48°31' W 122°37'0 0.0
2017-Dec-01 21:30N 48°31' W 122°37'0 0.0
2017-Dec-01 21:00N 48°31' W 122°37'0 0.0
2017-Dec-01 20:30N 48°31' W 122°37'0 0.0
2017-Dec-01 20:00N 48°31' W 122°37'0 0.0
2017-Dec-01 19:30N 48°31' W 122°37'0 0.0
2017-Dec-01 19:00N 48°31' W 122°37'0 0.0
2017-Dec-01 18:30N 48°31' W 122°37'0 0.0
2017-Dec-01 18:00N 48°31' W 122°37'0 0.0
2017-Dec-01 17:30N 48°31' W 122°37'0 0.0
2017-Dec-01 17:00N 48°31' W 122°37'  

Dump ship's entire track history